Time;durP1;ratioP1;P1;durP2;ratioP2;P2;SDS_P1;SDS_P2;PMS_P1;PMS_P2;Temp;Humidity;BMP_temperature;BMP_pressure;BME280_temperature;BME280_humidity;BME280_pressure;Samples;Min_cycle;Max_cycle;Signal;HPM_P1;HPM_P2
2023/11/26 00:00:05;;;;;;;3.83;2.38;;;;;;;;;;5028003;28;20029;-80
2023/11/26 00:02:31;;;;;;;3.03;2.35;;;;;;;;;;5019609;28;20017;-80
2023/11/26 00:04:57;;;;;;;3.05;2.20;;;;;;;;;;5033761;28;20076;-81
2023/11/26 00:07:23;;;;;;;6.18;3.67;;;;;;;;;;5029174;28;20025;-80
2023/11/26 00:09:50;;;;;;;8.68;4.40;;;;;;;;;;5021844;28;20032;-79
2023/11/26 00:12:16;;;;;;;9.82;4.25;;;;;;;;;;5031211;28;20022;-81
2023/11/26 00:14:42;;;;;;;6.55;3.33;;;;;;;;;;5030564;28;20310;-80
2023/11/26 00:17:09;;;;;;;10.85;6.35;;;;;;;;;;5032170;28;20105;-80
2023/11/26 00:19:35;;;;;;;9.10;4.18;;;;;;;;;;5031126;28;20057;-81
2023/11/26 00:22:02;;;;;;;5.43;3.28;;;;;;;;;;5034702;28;20132;-81
2023/11/26 00:24:28;;;;;;;5.50;3.00;;;;;;;;;;5031133;28;20045;-79
2023/11/26 00:26:54;;;;;;;4.60;2.45;;;;;;;;;;5039098;28;20026;-82
2023/11/26 00:29:20;;;;;;;9.73;5.65;;;;;;;;;;5032607;28;20041;-80
2023/11/26 00:31:47;;;;;;;8.20;5.22;;;;;;;;;;5035905;28;20487;-81
2023/11/26 00:34:14;;;;;;;13.43;5.72;;;;;;;;;;5027161;28;20057;-81
2023/11/26 00:36:40;;;;;;;10.07;4.35;;;;;;;;;;5025732;28;20085;-80
2023/11/26 00:39:06;;;;;;;8.82;4.57;;;;;;;;;;5023100;28;20021;-80
2023/11/26 00:41:32;;;;;;;14.60;7.30;;;;;;;;;;5032026;28;20429;-80
2023/11/26 00:43:58;;;;;;;9.30;5.65;;;;;;;;;;5025763;28;20022;-80
2023/11/26 00:46:25;;;;;;;9.43;4.57;;;;;;;;;;5028833;28;20022;-80
2023/11/26 00:48:51;;;;;;;8.05;3.72;;;;;;;;;;5024056;28;20072;-80
2023/11/26 00:51:21;;;;;;;7.13;3.72;;;;;;;;;;5032456;28;20025;-79
2023/11/26 00:53:49;;;;;;;5.53;3.45;;;;;;;;;;5026229;28;20021;-80
2023/11/26 00:56:15;;;;;;;9.13;3.63;;;;;;;;;;5027725;28;20091;-81
2023/11/26 00:58:41;;;;;;;4.65;3.35;;;;;;;;;;5047109;28;20018;-80
2023/11/26 01:01:07;;;;;;;6.20;3.42;;;;;;;;;;5025641;28;20025;-83
2023/11/26 01:03:33;;;;;;;6.57;3.70;;;;;;;;;;5024848;28;20041;-80
2023/11/26 01:05:59;;;;;;;4.68;3.58;;;;;;;;;;5023113;28;20031;-80
2023/11/26 01:08:25;;;;;;;6.32;3.38;;;;;;;;;;5026825;28;20083;-82
2023/11/26 01:10:52;;;;;;;3.97;3.05;;;;;;;;;;5025822;28;20116;-80
2023/11/26 01:13:18;;;;;;;3.38;3.08;;;;;;;;;;5020932;28;20025;-80
2023/11/26 01:15:44;;;;;;;5.53;2.97;;;;;;;;;;5022815;28;20026;-80
2023/11/26 01:18:10;;;;;;;5.43;2.90;;;;;;;;;;5042348;28;20117;-81
2023/11/26 01:20:36;;;;;;;5.50;3.20;;;;;;;;;;5026904;28;20483;-82
2023/11/26 01:23:02;;;;;;;7.03;3.92;;;;;;;;;;5024340;28;20026;-79
2023/11/26 01:25:28;;;;;;;12.85;6.65;;;;;;;;;;5017414;28;20451;-81
2023/11/26 01:27:54;;;;;;;8.65;4.47;;;;;;;;;;5029316;28;20022;-78
2023/11/26 01:30:21;;;;;;;5.75;3.65;;;;;;;;;;5022034;28;20025;-81
2023/11/26 01:32:47;;;;;;;7.47;4.60;;;;;;;;;;5025525;28;20021;-79
2023/11/26 01:35:13;;;;;;;6.38;3.70;;;;;;;;;;5025613;28;20017;-81
2023/11/26 01:37:40;;;;;;;12.25;6.68;;;;;;;;;;5051305;23;20470;-82
2023/11/26 01:40:09;;;;;;;10.55;5.40;;;;;;;;;;5023334;28;20018;-83
2023/11/26 01:42:35;;;;;;;11.90;6.53;;;;;;;;;;5024781;28;20137;-81
2023/11/26 01:45:02;;;;;;;14.05;7.70;;;;;;;;;;5023996;28;20017;-83
2023/11/26 01:47:28;;;;;;;11.80;5.82;;;;;;;;;;5024945;28;20055;-82
2023/11/26 01:49:55;;;;;;;9.05;4.00;;;;;;;;;;5020564;28;20023;-82
2023/11/26 01:52:21;;;;;;;11.32;5.22;;;;;;;;;;5018361;28;20056;-80
2023/11/26 01:54:48;;;;;;;9.90;4.57;;;;;;;;;;5021423;28;20042;-81
2023/11/26 01:57:15;;;;;;;10.15;3.30;;;;;;;;;;5013967;28;20022;-83
2023/11/26 01:59:41;;;;;;;6.72;2.58;;;;;;;;;;5019326;28;20026;-82
2023/11/26 02:02:07;;;;;;;7.65;3.28;;;;;;;;;;5016099;28;20031;-82
2023/11/26 02:04:34;;;;;;;10.95;4.13;;;;;;;;;;5018274;28;20104;-82
2023/11/26 02:07:00;;;;;;;9.15;3.65;;;;;;;;;;5020460;28;20018;-83
2023/11/26 02:09:26;;;;;;;9.60;3.63;;;;;;;;;;5021723;28;20041;-81
2023/11/26 02:11:52;;;;;;;9.27;3.65;;;;;;;;;;5019428;28;20095;-81
2023/11/26 02:14:18;;;;;;;7.05;2.50;;;;;;;;;;5024189;28;20017;-81
2023/11/26 02:16:48;;;;;;;11.48;3.58;;;;;;;;;;5022160;28;20033;-82
2023/11/26 02:19:20;;;;;;;7.88;2.10;;;;;;;;;;5022513;28;20034;-81
2023/11/26 02:21:46;;;;;;;8.60;2.45;;;;;;;;;;5018469;28;20026;-82
2023/11/26 02:24:16;;;;;;;8.43;2.03;;;;;;;;;;5022873;28;20018;-82
2023/11/26 02:26:42;;;;;;;4.30;1.98;;;;;;;;;;5020788;28;20515;-81
2023/11/26 02:29:08;;;;;;;7.15;2.20;;;;;;;;;;5016346;28;20010;-82
2023/11/26 02:31:34;;;;;;;7.10;2.65;;;;;;;;;;5020302;28;20038;-82
2023/11/26 02:34:00;;;;;;;6.78;2.25;;;;;;;;;;5023826;28;20010;-82
2023/11/26 02:36:27;;;;;;;8.57;2.67;;;;;;;;;;5022037;28;20081;-81
2023/11/26 02:38:53;;;;;;;8.18;2.40;;;;;;;;;;5022217;28;20006;-80
2023/11/26 02:41:22;;;;;;;5.82;2.55;;;;;;;;;;5024576;28;20052;-83
2023/11/26 02:43:49;;;;;;;5.13;2.33;;;;;;;;;;5022205;28;20033;-81
2023/11/26 02:46:15;;;;;;;3.35;2.10;;;;;;;;;;5021801;28;20037;-81
2023/11/26 02:48:41;;;;;;;10.63;3.50;;;;;;;;;;5024083;28;20031;-81
2023/11/26 02:51:07;;;;;;;8.68;3.20;;;;;;;;;;5018367;28;20038;-81
2023/11/26 02:53:33;;;;;;;9.93;2.90;;;;;;;;;;5018094;28;20098;-81
2023/11/26 02:55:59;;;;;;;9.63;2.80;;;;;;;;;;5017768;28;20034;-80
2023/11/26 02:58:25;;;;;;;7.60;2.38;;;;;;;;;;5017389;28;20019;-79
2023/11/26 03:00:52;;;;;;;10.07;2.75;;;;;;;;;;5016872;28;20040;-83
2023/11/26 03:03:19;;;;;;;8.73;3.20;;;;;;;;;;5017165;28;20030;-81
2023/11/26 03:05:50;;;;;;;7.20;2.38;;;;;;;;;;5017502;28;20093;-80
2023/11/26 03:08:28;;;;;;;5.10;2.65;;;;;;;;;;5018295;28;20093;-80
2023/11/26 03:13:40;;;;;;;4.32;2.65;;;;;;;;;;5017524;28;20041;-81
2023/11/26 03:16:12;;;;;;;5.97;2.50;;;;;;;;;;5013039;28;20069;-80
2023/11/26 03:18:38;;;;;;;9.63;3.90;;;;;;;;;;5018905;28;20038;-80
2023/11/26 03:21:05;;;;;;;4.65;2.95;;;;;;;;;;5018273;28;20038;-81
2023/11/26 03:23:32;;;;;;;7.10;3.58;;;;;;;;;;5017718;28;20066;-81
2023/11/26 03:25:58;;;;;;;19.92;7.20;;;;;;;;;;5016520;28;20042;-81
2023/11/26 03:28:25;;;;;;;18.25;5.95;;;;;;;;;;5018200;28;20030;-80
2023/11/26 03:30:52;;;;;;;14.35;5.78;;;;;;;;;;5016990;28;20030;-80
2023/11/26 03:33:18;;;;;;;8.55;4.57;;;;;;;;;;5016854;28;20030;-80
2023/11/26 03:35:45;;;;;;;20.02;4.25;;;;;;;;;;5018369;28;20040;-81
2023/11/26 03:38:12;;;;;;;8.27;3.28;;;;;;;;;;5016621;28;20034;-81
2023/11/26 03:40:39;;;;;;;7.32;3.50;;;;;;;;;;5017512;28;20053;-80
2023/11/26 03:43:05;;;;;;;4.60;2.70;;;;;;;;;;5019951;28;20105;-80
2023/11/26 03:45:31;;;;;;;5.65;3.10;;;;;;;;;;5012775;28;20042;-81
2023/11/26 03:47:59;;;;;;;6.88;3.88;;;;;;;;;;5011106;28;20094;-81
2023/11/26 03:50:25;;;;;;;5.40;3.72;;;;;;;;;;5011509;28;20042;-81
2023/11/26 03:52:51;;;;;;;4.72;2.78;;;;;;;;;;5011797;28;20031;-81
2023/11/26 03:55:17;;;;;;;4.03;2.83;;;;;;;;;;5010174;28;20053;-81
2023/11/26 03:57:43;;;;;;;5.10;2.65;;;;;;;;;;5015031;28;20030;-81
2023/11/26 04:00:10;;;;;;;3.38;2.63;;;;;;;;;;5022045;28;20041;-80
2023/11/26 04:02:36;;;;;;;5.32;2.50;;;;;;;;;;5018392;28;20018;-81
2023/11/26 04:05:04;;;;;;;5.95;2.60;;;;;;;;;;5012782;28;20027;-81
2023/11/26 04:07:31;;;;;;;5.93;2.20;;;;;;;;;;5028153;28;20029;-81
2023/11/26 04:09:57;;;;;;;3.58;2.45;;;;;;;;;;5011556;28;20030;-81
2023/11/26 04:12:24;;;;;;;6.70;2.55;;;;;;;;;;5023943;28;20084;-81
2023/11/26 04:14:54;;;;;;;7.38;2.80;;;;;;;;;;5016554;28;20057;-81
2023/11/26 04:17:21;;;;;;;3.70;2.05;;;;;;;;;;5016284;28;20029;-81
2023/11/26 04:19:48;;;;;;;4.80;2.17;;;;;;;;;;5011568;28;20026;-81
2023/11/26 04:22:14;;;;;;;7.32;2.30;;;;;;;;;;5012217;28;20023;-82
2023/11/26 04:24:43;;;;;;;4.93;2.30;;;;;;;;;;5009746;28;20378;-82
2023/11/26 04:27:09;;;;;;;4.60;2.10;;;;;;;;;;5012804;28;20053;-82
2023/11/26 04:29:35;;;;;;;4.55;2.00;;;;;;;;;;5010022;28;20089;-82
2023/11/26 04:32:02;;;;;;;6.53;2.10;;;;;;;;;;5010616;28;20034;-82
2023/11/26 04:34:28;;;;;;;3.03;1.77;;;;;;;;;;5013485;28;20011;-82
2023/11/26 04:36:54;;;;;;;4.35;1.73;;;;;;;;;;5013968;28;20023;-80
2023/11/26 04:39:20;;;;;;;3.83;1.73;;;;;;;;;;5017797;28;20082;-80
2023/11/26 04:41:46;;;;;;;3.20;1.77;;;;;;;;;;5016892;28;20034;-80
2023/11/26 04:44:12;;;;;;;4.15;1.75;;;;;;;;;;5018150;28;20030;-82
2023/11/26 04:46:38;;;;;;;5.13;1.50;;;;;;;;;;5012589;28;20086;-82
2023/11/26 04:49:05;;;;;;;3.47;1.52;;;;;;;;;;5013425;28;20133;-81
2023/11/26 04:51:35;;;;;;;2.17;1.60;;;;;;;;;;5007238;28;20114;-81
2023/11/26 04:54:01;;;;;;;2.65;1.52;;;;;;;;;;5006209;28;20032;-82
2023/11/26 04:56:28;;;;;;;3.47;1.38;;;;;;;;;;5007767;28;20038;-82
2023/11/26 04:58:54;;;;;;;2.08;1.48;;;;;;;;;;5013855;28;20025;-81
2023/11/26 05:01:22;;;;;;;1.83;1.20;;;;;;;;;;5014576;28;20019;-82
2023/11/26 05:03:48;;;;;;;1.50;1.35;;;;;;;;;;5006550;28;20033;-82
2023/11/26 05:06:14;;;;;;;1.25;1.17;;;;;;;;;;5007199;28;20050;-79
2023/11/26 05:08:43;;;;;;;3.85;1.77;;;;;;;;;;5000404;28;20037;-79
2023/11/26 05:11:10;;;;;;;1.55;1.42;;;;;;;;;;4997772;28;20038;-79
2023/11/26 05:13:36;;;;;;;2.60;1.70;;;;;;;;;;5032059;28;20050;-79
2023/11/26 05:16:04;;;;;;;3.10;1.50;;;;;;;;;;5011486;28;20518;-79
2023/11/26 05:18:30;;;;;;;4.85;1.60;;;;;;;;;;5005119;28;20038;-78
2023/11/26 05:20:57;;;;;;;3.05;1.50;;;;;;;;;;4997477;28;20050;-77
2023/11/26 05:23:23;;;;;;;2.13;1.58;;;;;;;;;;4996459;28;20030;-78
2023/11/26 05:25:49;;;;;;;1.95;1.33;;;;;;;;;;5010805;28;20161;-78
2023/11/26 05:28:16;;;;;;;1.67;1.50;;;;;;;;;;5007661;28;20025;-77
2023/11/26 05:30:42;;;;;;;3.10;1.90;;;;;;;;;;5001539;28;20022;-78
2023/11/26 05:33:08;;;;;;;3.10;1.77;;;;;;;;;;5007902;28;20022;-79
2023/11/26 05:35:34;;;;;;;1.80;1.65;;;;;;;;;;5011344;28;20030;-77
2023/11/26 05:38:00;;;;;;;1.52;1.35;;;;;;;;;;5001658;28;20026;-78
2023/11/26 05:40:27;;;;;;;4.03;1.27;;;;;;;;;;5000811;28;20149;-78
2023/11/26 05:42:53;;;;;;;2.28;1.42;;;;;;;;;;4999648;28;20195;-77
2023/11/26 05:45:19;;;;;;;1.38;1.25;;;;;;;;;;5000166;28;20030;-78
2023/11/26 05:47:45;;;;;;;1.70;1.23;;;;;;;;;;5002193;28;20049;-78
2023/11/26 05:50:11;;;;;;;1.48;1.30;;;;;;;;;;5001185;28;20030;-80
2023/11/26 05:52:37;;;;;;;1.35;1.25;;;;;;;;;;5001416;28;20026;-78
2023/11/26 05:55:06;;;;;;;1.90;1.55;;;;;;;;;;5001887;28;20023;-79
2023/11/26 05:57:32;;;;;;;4.05;1.90;;;;;;;;;;5002485;28;20078;-78
2023/11/26 05:59:59;;;;;;;3.53;1.67;;;;;;;;;;5008244;28;20028;-79
2023/11/26 06:02:25;;;;;;;5.47;2.13;;;;;;;;;;5006112;28;20500;-79
2023/11/26 06:04:51;;;;;;;2.15;1.90;;;;;;;;;;5006181;28;20031;-79
2023/11/26 06:07:18;;;;;;;2.55;2.08;;;;;;;;;;4998012;28;20026;-80
2023/11/26 06:09:44;;;;;;;2.90;1.88;;;;;;;;;;5007610;28;20034;-78
2023/11/26 06:12:10;;;;;;;2.75;2.15;;;;;;;;;;5010300;28;20086;-79
2023/11/26 06:14:36;;;;;;;2.88;1.70;;;;;;;;;;5003931;28;20026;-79
2023/11/26 06:17:02;;;;;;;2.97;1.92;;;;;;;;;;5003136;28;20029;-80
2023/11/26 06:19:28;;;;;;;3.22;1.63;;;;;;;;;;5005628;28;20023;-79
2023/11/26 06:21:55;;;;;;;2.47;1.83;;;;;;;;;;5003781;28;20038;-78
2023/11/26 06:24:21;;;;;;;5.32;2.15;;;;;;;;;;5009006;28;20106;-79
2023/11/26 06:26:47;;;;;;;4.32;2.35;;;;;;;;;;5005367;28;20121;-79
2023/11/26 06:29:13;;;;;;;3.85;2.33;;;;;;;;;;5004985;28;20117;-79
2023/11/26 06:31:40;;;;;;;4.10;2.47;;;;;;;;;;5005557;28;20042;-79
2023/11/26 06:34:07;;;;;;;3.65;2.15;;;;;;;;;;5005007;28;20022;-78
2023/11/26 06:36:33;;;;;;;2.75;1.88;;;;;;;;;;5012486;28;20029;-79
2023/11/26 06:38:59;;;;;;;2.50;1.90;;;;;;;;;;5003932;28;20037;-79
2023/11/26 06:41:27;;;;;;;3.80;1.88;;;;;;;;;;5005728;28;20026;-79
2023/11/26 06:43:54;;;;;;;4.75;2.20;;;;;;;;;;5009921;28;20073;-78
2023/11/26 06:46:22;;;;;;;4.57;2.72;;;;;;;;;;5012641;28;20134;-78
2023/11/26 06:48:48;;;;;;;3.85;2.35;;;;;;;;;;5015177;28;20057;-77
2023/11/26 06:51:14;;;;;;;5.50;2.72;;;;;;;;;;5015877;28;20038;-79
2023/11/26 06:53:40;;;;;;;5.20;2.45;;;;;;;;;;5017963;28;20030;-81
2023/11/26 06:56:07;;;;;;;3.65;2.13;;;;;;;;;;5017914;28;20098;-82
2023/11/26 06:58:37;;;;;;;4.53;2.45;;;;;;;;;;5018303;28;20019;-80
2023/11/26 07:01:05;;;;;;;4.20;2.40;;;;;;;;;;5014598;28;20369;-78
2023/11/26 07:03:32;;;;;;;3.25;2.58;;;;;;;;;;5001971;28;20078;-79
2023/11/26 07:05:58;;;;;;;4.25;2.03;;;;;;;;;;5002959;28;20090;-80
2023/11/26 07:08:25;;;;;;;3.03;1.83;;;;;;;;;;5008072;28;20022;-79
2023/11/26 07:10:51;;;;;;;6.97;2.30;;;;;;;;;;5006932;28;20074;-79
2023/11/26 07:13:19;;;;;;;5.25;2.35;;;;;;;;;;5025704;28;20066;-79
2023/11/26 07:15:45;;;;;;;3.70;2.25;;;;;;;;;;5009664;28;20034;-80
2023/11/26 07:18:12;;;;;;;8.77;2.22;;;;;;;;;;5006557;28;20078;-79
2023/11/26 07:20:40;;;;;;;10.00;2.63;;;;;;;;;;5008882;28;20066;-78
2023/11/26 07:23:06;;;;;;;4.85;2.47;;;;;;;;;;5008045;28;20119;-79
2023/11/26 07:25:33;;;;;;;6.80;2.38;;;;;;;;;;5003772;28;20034;-79
2023/11/26 07:28:08;;;;;;;4.93;2.50;;;;;;;;;;5003295;28;20116;-79
2023/11/26 07:30:35;;;;;;;4.50;2.78;;;;;;;;;;5001609;28;20034;-78
2023/11/26 07:33:01;;;;;;;4.30;2.50;;;;;;;;;;5000586;28;20030;-78
2023/11/26 07:35:27;;;;;;;6.68;2.60;;;;;;;;;;5001180;28;20022;-79
2023/11/26 07:37:54;;;;;;;9.20;2.38;;;;;;;;;;5000245;28;20044;-78
2023/11/26 07:40:20;;;;;;;5.05;2.40;;;;;;;;;;4997868;28;20029;-77
2023/11/26 07:42:46;;;;;;;4.28;3.25;;;;;;;;;;4999584;28;20018;-78
2023/11/26 07:45:13;;;;;;;5.78;2.58;;;;;;;;;;5013250;28;20034;-77
2023/11/26 07:47:39;;;;;;;3.10;1.95;;;;;;;;;;5012264;28;20099;-78
2023/11/26 07:50:09;;;;;;;6.60;2.45;;;;;;;;;;5018793;28;20026;-79
2023/11/26 07:52:35;;;;;;;3.03;1.95;;;;;;;;;;5012668;28;20073;-78
2023/11/26 07:55:04;;;;;;;4.95;2.20;;;;;;;;;;5016763;28;20022;-78
2023/11/26 07:57:30;;;;;;;3.78;2.78;;;;;;;;;;5017660;28;20034;-78
2023/11/26 07:59:57;;;;;;;2.63;2.42;;;;;;;;;;5017506;28;20014;-77
2023/11/26 08:02:23;;;;;;;6.97;3.25;;;;;;;;;;5007882;28;20049;-78
2023/11/26 08:04:53;;;;;;;3.90;2.58;;;;;;;;;;5007218;28;20022;-79
2023/11/26 08:07:23;;;;;;;5.35;2.47;;;;;;;;;;5005268;28;20103;-77
2023/11/26 08:09:56;;;;;;;3.42;2.70;;;;;;;;;;5008795;28;20082;-78
2023/11/26 08:12:24;;;;;;;6.80;2.90;;;;;;;;;;5002012;28;20050;-78
2023/11/26 08:14:59;;;;;;;7.40;2.75;;;;;;;;;;4999750;28;20031;-78
2023/11/26 08:17:29;;;;;;;3.10;2.42;;;;;;;;;;5001212;28;20034;-79
2023/11/26 08:19:55;;;;;;;4.28;2.80;;;;;;;;;;5001118;28;20039;-79
2023/11/26 08:22:22;;;;;;;4.57;3.00;;;;;;;;;;5005383;28;20086;-79
2023/11/26 08:24:48;;;;;;;2.72;2.15;;;;;;;;;;5001521;28;20042;-79
2023/11/26 08:27:16;;;;;;;2.13;1.80;;;;;;;;;;5000479;28;20027;-78
2023/11/26 08:29:43;;;;;;;2.70;2.40;;;;;;;;;;4999689;28;20460;-79
2023/11/26 08:32:13;;;;;;;3.28;2.45;;;;;;;;;;5004249;28;20030;-80
2023/11/26 08:34:41;;;;;;;5.10;2.50;;;;;;;;;;5009687;28;20018;-78
2023/11/26 08:37:08;;;;;;;2.17;1.90;;;;;;;;;;5012076;28;20037;-78
2023/11/26 08:39:38;;;;;;;2.65;2.15;;;;;;;;;;5001791;28;20113;-80
2023/11/26 08:42:05;;;;;;;4.28;2.67;;;;;;;;;;4999840;28;20023;-79
2023/11/26 08:44:34;;;;;;;2.58;2.15;;;;;;;;;;5001155;28;20028;-79
2023/11/26 08:47:01;;;;;;;4.43;2.25;;;;;;;;;;5000552;28;20023;-78
2023/11/26 08:49:28;;;;;;;4.03;2.88;;;;;;;;;;5010678;28;20022;-80
2023/11/26 08:51:54;;;;;;;3.58;2.90;;;;;;;;;;5001121;28;20049;-80
2023/11/26 08:54:23;;;;;;;4.70;2.97;;;;;;;;;;5012344;28;20026;-79
2023/11/26 08:56:50;;;;;;;3.85;2.70;;;;;;;;;;5004685;28;20022;-80
2023/11/26 08:59:17;;;;;;;6.10;3.08;;;;;;;;;;5011335;28;20013;-79
2023/11/26 09:01:43;;;;;;;5.30;3.00;;;;;;;;;;5017005;28;20026;-79
2023/11/26 09:04:10;;;;;;;3.85;2.42;;;;;;;;;;5017626;28;20050;-77
2023/11/26 09:06:36;;;;;;;3.53;2.78;;;;;;;;;;5013614;28;20019;-78
2023/11/26 09:09:02;;;;;;;3.55;2.50;;;;;;;;;;5007905;28;20031;-77
2023/11/26 09:11:29;;;;;;;5.85;3.13;;;;;;;;;;5002609;28;20017;-79
2023/11/26 09:13:57;;;;;;;4.97;2.58;;;;;;;;;;5022899;28;20026;-77
2023/11/26 09:16:24;;;;;;;3.05;2.50;;;;;;;;;;5013651;28;20026;-76
2023/11/26 09:18:51;;;;;;;5.03;2.50;;;;;;;;;;5023626;28;20469;-80
2023/11/26 09:21:18;;;;;;;6.03;2.58;;;;;;;;;;5006619;28;20018;-81
2023/11/26 09:23:45;;;;;;;4.07;2.83;;;;;;;;;;5004299;28;20050;-79
2023/11/26 09:26:11;;;;;;;4.20;2.78;;;;;;;;;;4998904;28;20026;-77
2023/11/26 09:28:37;;;;;;;5.68;2.53;;;;;;;;;;5002603;28;20026;-81
2023/11/26 09:31:05;;;;;;;4.47;2.38;;;;;;;;;;5000258;28;20030;-80
2023/11/26 09:33:32;;;;;;;7.22;2.38;;;;;;;;;;5000999;28;20022;-81
2023/11/26 09:35:58;;;;;;;2.50;1.98;;;;;;;;;;5002577;28;20022;-79
2023/11/26 09:38:24;;;;;;;3.28;2.10;;;;;;;;;;5008744;28;20038;-80
2023/11/26 09:40:50;;;;;;;3.65;2.15;;;;;;;;;;5007442;28;20025;-81
2023/11/26 09:43:17;;;;;;;4.15;2.47;;;;;;;;;;5001938;28;20054;-79
2023/11/26 09:45:45;;;;;;;7.05;2.42;;;;;;;;;;5000905;28;20034;-80
2023/11/26 09:48:12;;;;;;;6.30;2.85;;;;;;;;;;5001129;28;20056;-80
2023/11/26 09:50:42;;;;;;;2.22;1.73;;;;;;;;;;4999358;28;20027;-80
2023/11/26 09:53:08;;;;;;;2.97;2.05;;;;;;;;;;4999414;28;20018;-79
2023/11/26 09:55:41;;;;;;;4.07;2.10;;;;;;;;;;5011292;28;20019;-78
2023/11/26 09:58:07;;;;;;;4.75;2.38;;;;;;;;;;5012878;28;20019;-80
2023/11/26 10:00:33;;;;;;;3.15;2.15;;;;;;;;;;5002383;28;20019;-80
2023/11/26 10:03:00;;;;;;;4.97;2.33;;;;;;;;;;5004449;28;20022;-79
2023/11/26 10:05:27;;;;;;;4.22;2.35;;;;;;;;;;5009423;28;20045;-79
2023/11/26 10:07:54;;;;;;;3.00;2.03;;;;;;;;;;5004457;28;20035;-80
2023/11/26 10:10:21;;;;;;;2.15;1.70;;;;;;;;;;5007512;28;20095;-80
2023/11/26 10:12:52;;;;;;;3.45;2.03;;;;;;;;;;5002643;28;20026;-81
2023/11/26 10:15:18;;;;;;;3.05;1.80;;;;;;;;;;5000538;28;20083;-79
2023/11/26 10:18:03;;;;;;;2.85;1.83;;;;;;;;;;4999268;28;20031;-78
2023/11/26 10:20:30;;;;;;;2.58;1.70;;;;;;;;;;4993814;28;20026;-80
2023/11/26 10:22:56;;;;;;;2.15;1.75;;;;;;;;;;5003026;28;20411;-79
2023/11/26 10:25:24;;;;;;;2.22;1.90;;;;;;;;;;5006994;28;20018;-78
2023/11/26 10:27:50;;;;;;;4.53;2.40;;;;;;;;;;5012680;28;20006;-78
2023/11/26 10:30:24;;;;;;;1.45;1.27;;;;;;;;;;5011715;28;20026;-79
2023/11/26 10:32:58;;;;;;;4.20;2.10;;;;;;;;;;5003646;28;20018;-80
2023/11/26 10:35:24;;;;;;;3.97;1.88;;;;;;;;;;4985403;28;20029;-77
2023/11/26 10:38:08;;;;;;;2.67;1.90;;;;;;;;;;4997597;28;20034;-78
2023/11/26 10:40:35;;;;;;;3.70;1.55;;;;;;;;;;4997193;28;20026;-81
2023/11/26 10:43:02;;;;;;;2.08;1.60;;;;;;;;;;5009144;28;20536;-79
2023/11/26 10:45:29;;;;;;;3.30;1.92;;;;;;;;;;4997980;28;20022;-77
2023/11/26 10:47:58;;;;;;;3.08;2.03;;;;;;;;;;5006593;28;20035;-80
2023/11/26 10:50:24;;;;;;;2.30;2.10;;;;;;;;;;4997717;28;20381;-76
2023/11/26 10:52:53;;;;;;;5.28;2.35;;;;;;;;;;4997525;28;20041;-78
2023/11/26 10:55:30;;;;;;;3.55;2.15;;;;;;;;;;4997619;28;20057;-79
2023/11/26 10:57:59;;;;;;;2.92;1.75;;;;;;;;;;5005994;28;20148;-79
2023/11/26 11:00:29;;;;;;;3.63;2.17;;;;;;;;;;4995403;28;20023;-77
2023/11/26 11:02:56;;;;;;;3.42;1.65;;;;;;;;;;4997348;28;20481;-77
2023/11/26 11:05:23;;;;;;;2.67;2.03;;;;;;;;;;4997561;28;20031;-78
2023/11/26 11:07:49;;;;;;;3.65;2.15;;;;;;;;;;4997527;28;20042;-80
2023/11/26 11:10:21;;;;;;;4.10;1.70;;;;;;;;;;4996219;28;20030;-78
2023/11/26 11:12:53;;;;;;;3.95;2.35;;;;;;;;;;5004190;28;20445;-79
2023/11/26 11:15:21;;;;;;;7.00;2.35;;;;;;;;;;5013215;28;20015;-79
2023/11/26 11:17:47;;;;;;;3.47;1.77;;;;;;;;;;5008808;28;20129;-77
2023/11/26 11:20:14;;;;;;;4.47;2.28;;;;;;;;;;4996343;28;20459;-79
2023/11/26 11:22:43;;;;;;;3.22;2.28;;;;;;;;;;5002898;28;20018;-78
2023/11/26 11:25:11;;;;;;;3.22;2.30;;;;;;;;;;5003808;28;20027;-78
2023/11/26 11:27:54;;;;;;;4.22;2.20;;;;;;;;;;5005244;28;20033;-78
2023/11/26 11:30:32;;;;;;;4.18;2.50;;;;;;;;;;5001002;28;20014;-79
2023/11/26 11:33:08;;;;;;;4.82;2.33;;;;;;;;;;5007635;28;20037;-78
2023/11/26 11:35:47;;;;;;;3.50;2.13;;;;;;;;;;4992539;28;20022;-78
2023/11/26 11:38:18;;;;;;;3.25;2.03;;;;;;;;;;5002030;28;20026;-80
2023/11/26 11:41:00;;;;;;;1.58;1.48;;;;;;;;;;5003872;28;20033;-79
2023/11/26 11:43:27;;;;;;;3.85;2.45;;;;;;;;;;5003527;28;20500;-80
2023/11/26 11:45:54;;;;;;;4.30;2.20;;;;;;;;;;5003410;28;20029;-80
2023/11/26 11:48:38;;;;;;;4.80;2.30;;;;;;;;;;5003482;28;20029;-80
2023/11/26 11:51:24;;;;;;;2.75;2.03;;;;;;;;;;5001743;28;20062;-80
2023/11/26 11:53:50;;;;;;;4.22;2.15;;;;;;;;;;4992686;28;20034;-79
2023/11/26 11:56:19;;;;;;;2.63;2.30;;;;;;;;;;5002658;28;20041;-80
2023/11/26 11:58:46;;;;;;;3.75;2.40;;;;;;;;;;4984809;28;20034;-80
2023/11/26 12:01:13;;;;;;;2.40;1.73;;;;;;;;;;5013462;28;20069;-80
2023/11/26 12:03:40;;;;;;;3.25;2.00;;;;;;;;;;4998717;28;20090;-81
2023/11/26 12:06:09;;;;;;;1.95;1.70;;;;;;;;;;5013379;28;20045;-80
2023/11/26 12:08:36;;;;;;;3.13;2.03;;;;;;;;;;5010049;28;20033;-80
2023/11/26 12:11:09;;;;;;;3.47;2.10;;;;;;;;;;5010989;28;20030;-79
2023/11/26 12:13:44;;;;;;;5.45;2.47;;;;;;;;;;5018238;28;20117;-80
2023/11/26 12:16:11;;;;;;;4.18;2.10;;;;;;;;;;5022598;28;20033;-80
2023/11/26 12:18:38;;;;;;;3.08;2.08;;;;;;;;;;4997933;28;20027;-79
2023/11/26 12:21:04;;;;;;;3.80;2.33;;;;;;;;;;5002842;28;20046;-81
2023/11/26 12:23:31;;;;;;;1.77;1.50;;;;;;;;;;4994988;28;20026;-82
2023/11/26 12:25:58;;;;;;;3.78;1.95;;;;;;;;;;5011801;28;20025;-80
2023/11/26 12:28:25;;;;;;;3.10;1.90;;;;;;;;;;4999949;28;20033;-82
2023/11/26 12:30:59;;;;;;;4.57;1.90;;;;;;;;;;5006752;28;20026;-80
2023/11/26 12:33:25;;;;;;;2.28;1.98;;;;;;;;;;5002803;28;20022;-80
2023/11/26 12:35:52;;;;;;;3.72;1.75;;;;;;;;;;5003690;28;20022;-81
2023/11/26 12:38:25;;;;;;;3.42;1.60;;;;;;;;;;5010548;28;20030;-82
2023/11/26 12:41:00;;;;;;;4.38;2.28;;;;;;;;;;5014861;28;20049;-78
2023/11/26 12:43:27;;;;;;;3.72;2.50;;;;;;;;;;5025930;28;20038;-78
2023/11/26 12:46:13;;;;;;;3.45;2.08;;;;;;;;;;5025550;28;20018;-76
2023/11/26 12:48:40;;;;;;;3.03;2.20;;;;;;;;;;5016028;28;20014;-77
2023/11/26 12:51:06;;;;;;;3.83;2.30;;;;;;;;;;5021497;28;20102;-79
2023/11/26 12:53:33;;;;;;;2.33;1.70;;;;;;;;;;5025312;28;20010;-78
2023/11/26 12:55:59;;;;;;;3.80;1.75;;;;;;;;;;5024644;28;20121;-78
2023/11/26 12:58:28;;;;;;;1.98;1.40;;;;;;;;;;5028334;28;20026;-78
2023/11/26 13:00:55;;;;;;;3.00;1.50;;;;;;;;;;5030417;28;20042;-79
2023/11/26 13:03:22;;;;;;;2.03;1.63;;;;;;;;;;5028540;28;20029;-77
2023/11/26 13:05:48;;;;;;;2.67;1.98;;;;;;;;;;5021372;28;20031;-77
2023/11/26 13:08:21;;;;;;;3.35;1.83;;;;;;;;;;5018234;28;20101;-76
2023/11/26 13:10:50;;;;;;;2.88;1.95;;;;;;;;;;5024000;28;20082;-77
2023/11/26 13:13:26;;;;;;;2.33;1.98;;;;;;;;;;5034521;28;20014;-77
2023/11/26 13:15:55;;;;;;;2.38;1.80;;;;;;;;;;5017891;28;20033;-76
2023/11/26 13:18:21;;;;;;;2.97;1.85;;;;;;;;;;5017534;28;20014;-79
2023/11/26 13:20:47;;;;;;;3.97;2.42;;;;;;;;;;5006223;28;20065;-82
2023/11/26 13:23:14;;;;;;;5.35;1.80;;;;;;;;;;5005133;28;20026;-82
2023/11/26 13:25:40;;;;;;;2.85;1.95;;;;;;;;;;5017562;28;20492;-79
2023/11/26 13:28:09;;;;;;;2.03;1.70;;;;;;;;;;5005450;28;20027;-79
2023/11/26 13:30:39;;;;;;;2.00;1.67;;;;;;;;;;5010848;28;20030;-79
2023/11/26 13:33:06;;;;;;;1.67;1.42;;;;;;;;;;5014342;28;20029;-82
2023/11/26 13:35:38;;;;;;;2.70;1.70;;;;;;;;;;5009522;28;20125;-79
2023/11/26 13:38:07;;;;;;;4.20;3.53;;;;;;;;;;5016865;22;20504;-81
2023/11/26 13:40:33;;;;;;;2.28;1.90;;;;;;;;;;5025100;28;20025;-82
2023/11/26 13:42:59;;;;;;;2.30;1.92;;;;;;;;;;5015753;28;20022;-82
2023/11/26 13:45:25;;;;;;;3.25;2.00;;;;;;;;;;5022596;28;20076;-82
2023/11/26 13:47:54;;;;;;;3.00;1.80;;;;;;;;;;5015811;28;20037;-81
2023/11/26 13:50:20;;;;;;;3.63;2.40;;;;;;;;;;5009433;28;20505;-81
2023/11/26 13:52:47;;;;;;;4.28;2.03;;;;;;;;;;5002354;28;20088;-81
2023/11/26 13:55:13;;;;;;;1.90;1.73;;;;;;;;;;5002774;28;20018;-81
2023/11/26 13:57:42;;;;;;;7.93;1.85;;;;;;;;;;5005359;28;20038;-81
2023/11/26 14:00:10;;;;;;;5.82;2.78;;;;;;;;;;5003040;28;20027;-81
2023/11/26 14:02:36;;;;;;;3.95;2.00;;;;;;;;;;5009416;28;20023;-82
2023/11/26 14:05:08;;;;;;;3.53;2.53;;;;;;;;;;4998782;28;20078;-80
2023/11/26 14:07:34;;;;;;;3.83;2.42;;;;;;;;;;5002535;28;20098;-82
2023/11/26 14:10:00;;;;;;;4.82;2.20;;;;;;;;;;5008251;28;20033;-81
2023/11/26 14:12:26;;;;;;;3.42;1.63;;;;;;;;;;5010069;28;20032;-81
2023/11/26 14:14:54;;;;;;;8.30;2.40;;;;;;;;;;5010756;28;20056;-82
2023/11/26 14:17:20;;;;;;;2.97;2.20;;;;;;;;;;5001424;28;20037;-82
2023/11/26 14:19:47;;;;;;;4.50;2.35;;;;;;;;;;5008710;28;20121;-81
2023/11/26 14:22:13;;;;;;;3.45;2.55;;;;;;;;;;5005232;28;20034;-81
2023/11/26 14:24:39;;;;;;;4.53;2.63;;;;;;;;;;5011539;28;20035;-81
2023/11/26 14:27:05;;;;;;;4.55;3.10;;;;;;;;;;5009017;28;20052;-80
2023/11/26 14:29:31;;;;;;;3.63;2.55;;;;;;;;;;5025100;28;20011;-81
2023/11/26 14:31:57;;;;;;;5.10;4.43;;;;;;;;;;5018551;28;20037;-81
2023/11/26 14:34:23;;;;;;;5.22;3.35;;;;;;;;;;5006526;28;20022;-81
2023/11/26 14:36:49;;;;;;;5.15;3.90;;;;;;;;;;5013586;28;20388;-80
2023/11/26 14:39:16;;;;;;;4.10;3.35;;;;;;;;;;5002447;28;20034;-81
2023/11/26 14:41:43;;;;;;;5.88;3.70;;;;;;;;;;5022984;28;20041;-80
2023/11/26 14:44:09;;;;;;;4.43;3.30;;;;;;;;;;5026037;28;20014;-81
2023/11/26 14:46:35;;;;;;;4.22;3.30;;;;;;;;;;5014060;28;20081;-80